createdAt,value
2022-11-23T00:02:28.351Z,4.10
2022-11-23T00:05:31.478Z,4.20
2022-11-23T00:08:32.433Z,4.20
2022-11-23T00:11:35.591Z,4.20
2022-11-23T00:14:36.494Z,4.20
2022-11-23T00:17:37.118Z,4.30
2022-11-23T00:20:40.078Z,4.20
2022-11-23T00:23:40.895Z,4.20
2022-11-23T00:26:41.748Z,4.30
2022-11-23T00:29:42.616Z,4.20
2022-11-23T00:32:44.351Z,4.20
2022-11-23T00:35:45.462Z,4.10
2022-11-23T00:38:47.900Z,4.10
2022-11-23T00:41:49.193Z,4.20
2022-11-23T00:44:49.783Z,4.30
2022-11-23T00:47:50.705Z,4.40
2022-11-23T00:50:51.871Z,4.40
2022-11-23T00:53:53.826Z,4.40
2022-11-23T00:56:54.555Z,4.40
2022-11-23T00:59:56.311Z,4.40
2022-11-23T01:02:58.997Z,4.30
2022-11-23T01:06:09.372Z,4.30
2022-11-23T01:09:18.245Z,4.30
2022-11-23T01:12:19.255Z,4.30
2022-11-23T01:15:21.645Z,4.40
2022-11-23T01:18:23.982Z,4.40
2022-11-23T01:21:27.646Z,4.40
2022-11-23T01:24:28.788Z,4.40
2022-11-23T01:27:29.452Z,4.40
2022-11-23T01:30:34.503Z,4.40
2022-11-23T01:33:36.690Z,4.50
2022-11-23T01:36:37.769Z,4.50
2022-11-23T01:39:38.595Z,4.50
2022-11-23T01:43:00.395Z,4.40
2022-11-23T01:46:02.779Z,4.30
2022-11-23T01:49:07.783Z,4.40
2022-11-23T01:52:24.824Z,4.40
2022-11-23T01:55:27.609Z,4.40
2022-11-23T01:58:33.332Z,4.30
2022-11-23T02:01:34.324Z,4.30
2022-11-23T02:04:43.561Z,4.30
2022-11-23T02:07:50.296Z,4.30
2022-11-23T02:10:51.580Z,4.20
2022-11-23T02:13:52.820Z,4.10
2022-11-23T02:16:54.313Z,4.00
2022-11-23T02:20:15.275Z,4.00
2022-11-23T02:23:52.400Z,4.10
2022-11-23T02:26:54.233Z,4.10
2022-11-23T02:30:00.347Z,3.90
2022-11-23T02:33:06.301Z,3.90
2022-11-23T02:36:42.981Z,3.90
2022-11-23T02:39:52.170Z,3.80
2022-11-23T02:42:53.479Z,3.80
2022-11-23T02:45:59.718Z,3.80
2022-11-23T02:49:00.760Z,3.90
2022-11-23T02:52:03.203Z,3.80
2022-11-23T02:55:04.299Z,3.70
2022-11-23T02:58:07.407Z,3.40
2022-11-23T03:01:08.472Z,3.40
2022-11-23T03:04:10.712Z,3.10
2022-11-23T03:07:11.624Z,3.00
2022-11-23T03:10:14.029Z,3.10
2022-11-23T03:13:15.085Z,3.20
2022-11-23T03:16:16.855Z,3.30
2022-11-23T03:19:21.309Z,3.60
2022-11-23T03:22:24.949Z,3.70
2022-11-23T03:25:27.468Z,3.80
2022-11-23T03:28:30.928Z,3.90
2022-11-23T03:31:32.202Z,3.90
2022-11-23T03:34:34.073Z,4.00
2022-11-23T03:37:35.943Z,3.90
2022-11-23T03:40:37.247Z,4.00
2022-11-23T03:43:58.088Z,4.00
2022-11-23T03:46:59.565Z,4.00
2022-11-23T03:50:02.069Z,4.00
2022-11-23T03:53:06.370Z,3.90
2022-11-23T03:56:09.187Z,3.90
2022-11-23T03:59:15.416Z,4.00
2022-11-23T04:02:16.760Z,4.10
2022-11-23T04:05:30.273Z,4.10
2022-11-23T04:08:50.045Z,4.00
2022-11-23T04:12:00.452Z,3.90
2022-11-23T04:15:01.664Z,3.90
2022-11-23T04:18:02.787Z,3.90
2022-11-23T04:21:04.108Z,3.80
2022-11-23T04:24:05.653Z,3.80
2022-11-23T04:27:08.406Z,3.70
2022-11-23T04:30:10.418Z,3.70
2022-11-23T04:33:12.030Z,3.70
2022-11-23T04:36:13.759Z,3.60
2022-11-23T04:39:15.182Z,3.50
2022-11-23T04:42:36.261Z,3.50
2022-11-23T04:45:41.071Z,3.50
2022-11-23T04:48:48.772Z,3.60
2022-11-23T04:51:51.596Z,3.50
2022-11-23T04:54:55.014Z,3.50
2022-11-23T04:57:57.035Z,3.50
2022-11-23T05:01:01.222Z,3.40
2022-11-23T05:04:02.621Z,3.40
2022-11-23T05:07:03.971Z,3.30
2022-11-23T05:10:08.405Z,3.30
2022-11-23T05:13:09.997Z,3.40
2022-11-23T05:16:11.270Z,3.40
2022-11-23T05:19:14.015Z,3.40
2022-11-23T05:22:15.278Z,3.40
2022-11-23T05:25:17.636Z,3.30
2022-11-23T05:28:39.759Z,2.80
2022-11-23T05:31:41.808Z,2.30
2022-11-23T05:34:44.350Z,2.00
2022-11-23T05:37:47.877Z,1.80
2022-11-23T05:40:50.172Z,1.80
2022-11-23T05:43:51.537Z,1.80
2022-11-23T05:46:57.217Z,1.70
2022-11-23T05:49:58.391Z,1.90
2022-11-23T05:53:03.569Z,2.00
2022-11-23T05:56:05.922Z,2.00
2022-11-23T05:59:13.552Z,2.10
2022-11-23T06:02:17.574Z,2.40
2022-11-23T06:05:19.118Z,2.60
2022-11-23T06:08:23.932Z,2.70
2022-11-23T06:11:25.254Z,2.90
2022-11-23T06:14:29.247Z,2.90
2022-11-23T06:17:31.049Z,2.90
2022-11-23T06:20:37.533Z,2.70
2022-11-23T06:23:38.680Z,2.10
2022-11-23T06:26:40.479Z,1.80
2022-11-23T06:29:42.255Z,1.70
2022-11-23T06:32:42.986Z,1.60
2022-11-23T06:36:02.967Z,1.40
2022-11-23T06:39:10.654Z,1.50
2022-11-23T06:45:35.266Z,2.00
2022-11-23T06:48:43.747Z,1.90
2022-11-23T06:51:46.676Z,2.00
2022-11-23T06:54:49.291Z,2.10
2022-11-23T06:57:50.659Z,2.10
2022-11-23T07:00:51.969Z,2.20
2022-11-23T07:03:53.200Z,2.40
2022-11-23T07:07:04.828Z,2.40
2022-11-23T07:10:18.361Z,2.40
2022-11-23T07:13:22.622Z,2.50
2022-11-23T07:16:24.182Z,2.60
2022-11-23T07:19:25.785Z,2.70
2022-11-23T07:22:30.764Z,2.90
2022-11-23T07:25:34.266Z,3.00
2022-11-23T07:28:36.184Z,3.00
2022-11-23T07:31:38.029Z,3.00
2022-11-23T07:34:38.975Z,3.00
2022-11-23T07:37:41.898Z,3.00
2022-11-23T07:40:43.873Z,3.10
2022-11-23T07:43:56.849Z,3.10
2022-11-23T07:46:58.078Z,3.60
2022-11-23T07:49:59.258Z,4.20
2022-11-23T07:53:03.931Z,4.80
2022-11-23T07:56:05.427Z,5.20
2022-11-23T07:59:06.279Z,5.80
2022-11-23T08:02:15.993Z,8.80
2022-11-23T08:05:18.407Z,10.60
2022-11-23T08:08:23.409Z,10.90
2022-11-23T08:11:24.411Z,10.80
2022-11-23T08:14:25.775Z,11.00
2022-11-23T08:17:27.196Z,11.60
2022-11-23T08:20:30.300Z,11.50
2022-11-23T08:23:31.371Z,12.90
2022-11-23T08:26:32.786Z,14.00
2022-11-23T08:29:33.608Z,14.90
2022-11-23T08:32:35.500Z,15.50
2022-11-23T08:35:42.314Z,14.90
2022-11-23T08:38:43.242Z,15.80
2022-11-23T08:41:44.440Z,15.60
2022-11-23T08:44:45.136Z,16.00
2022-11-23T08:47:46.097Z,17.10
2022-11-23T08:50:47.118Z,18.70
2022-11-23T08:53:47.831Z,19.10
2022-11-23T08:56:49.173Z,18.20
2022-11-23T08:59:50.354Z,17.70
2022-11-23T09:02:51.258Z,19.00
2022-11-23T09:05:52.004Z,18.40
2022-11-23T09:08:53.430Z,19.30
2022-11-23T09:11:54.608Z,20.10
2022-11-23T09:14:55.459Z,19.90
2022-11-23T09:17:57.491Z,20.40
2022-11-23T09:20:59.118Z,20.10
2022-11-23T09:24:00.294Z,20.90
2022-11-23T09:27:01.390Z,21.40
2022-11-23T09:30:02.794Z,20.80
2022-11-23T09:33:03.808Z,20.90
2022-11-23T09:36:05.244Z,20.20
2022-11-23T09:39:05.950Z,20.70
2022-11-23T09:42:34.632Z,21.10
2022-11-23T09:45:54.320Z,22.10
2022-11-23T09:49:20.134Z,22.00
2022-11-23T09:52:25.425Z,22.00
2022-11-23T09:55:47.823Z,22.60
2022-11-23T09:58:56.897Z,23.40
2022-11-23T10:02:00.672Z,20.90
2022-11-23T10:05:05.534Z,17.80
2022-11-23T10:08:27.430Z,21.50
2022-11-23T10:11:37.939Z,22.80
2022-11-23T10:14:41.991Z,24.10
2022-11-23T10:17:51.183Z,23.70
2022-11-23T10:21:42.984Z,24.60
2022-11-23T10:24:51.174Z,23.40
2022-11-23T10:28:01.094Z,19.40
2022-11-23T10:31:26.021Z,19.70
2022-11-23T10:35:15.559Z,21.20
2022-11-23T10:38:22.151Z,21.20
2022-11-23T10:41:23.222Z,19.00
2022-11-23T10:44:38.221Z,17.10
2022-11-23T10:47:48.930Z,18.50
2022-11-23T10:50:50.203Z,18.70
2022-11-23T10:54:21.471Z,19.10
2022-11-23T10:57:28.516Z,19.80
2022-11-23T11:00:31.286Z,19.70
2022-11-23T11:03:35.332Z,19.40
2022-11-23T11:06:36.433Z,18.90
2022-11-23T11:09:38.110Z,19.40
2022-11-23T11:12:52.045Z,18.90
2022-11-23T11:16:02.619Z,18.80
2022-11-23T11:19:31.030Z,19.50
2022-11-23T11:22:40.177Z,20.30
2022-11-23T11:25:45.114Z,19.60
2022-11-23T11:28:54.534Z,19.10
2022-11-23T11:32:09.345Z,18.70
2022-11-23T11:35:25.090Z,18.80
2022-11-23T11:38:35.066Z,20.00
2022-11-23T11:41:37.586Z,19.10
2022-11-23T11:44:43.077Z,19.10
2022-11-23T11:47:59.791Z,19.60
2022-11-23T11:51:31.853Z,18.90
2022-11-23T11:54:59.052Z,19.00
2022-11-23T11:58:11.030Z,18.70
2022-11-23T12:01:38.369Z,17.30
2022-11-23T12:04:58.049Z,15.70
2022-11-23T12:08:41.061Z,14.80
2022-11-23T12:11:42.537Z,13.90
2022-11-23T12:14:45.358Z,13.60
2022-11-23T12:18:38.639Z,13.60
2022-11-23T12:22:03.206Z,13.10
2022-11-23T12:25:11.509Z,12.30
2022-11-23T12:29:03.476Z,11.90
2022-11-23T12:32:28.625Z,11.30
2022-11-23T12:35:54.993Z,10.80
2022-11-23T12:39:55.746Z,11.20
2022-11-23T12:43:08.892Z,10.30
2022-11-23T12:46:45.200Z,10.40
2022-11-23T12:49:54.256Z,10.00
2022-11-23T12:53:27.196Z,9.80
2022-11-23T12:56:54.840Z,10.40
2022-11-23T13:00:17.076Z,11.50
2022-11-23T13:03:45.759Z,10.70
2022-11-23T13:07:28.427Z,11.70
2022-11-23T13:11:25.430Z,12.70
2022-11-23T13:14:57.859Z,13.50
2022-11-23T13:18:38.807Z,13.50
2022-11-23T13:21:43.701Z,13.50
2022-11-23T13:25:29.860Z,14.50
2022-11-23T13:28:31.825Z,14.50
2022-11-23T13:31:36.068Z,13.60
2022-11-23T13:34:46.899Z,14.00
2022-11-23T13:37:57.127Z,15.30
2022-11-23T13:40:58.554Z,13.30
2022-11-23T13:44:11.421Z,13.10
2022-11-23T13:47:16.233Z,13.20
2022-11-23T13:50:19.520Z,12.60
2022-11-23T13:53:32.553Z,11.60
2022-11-23T13:56:39.139Z,11.10
2022-11-23T13:59:40.075Z,10.60
2022-11-23T14:02:42.450Z,11.80
2022-11-23T14:05:49.702Z,13.50
2022-11-23T14:09:17.201Z,14.20
2022-11-23T14:12:27.823Z,12.60
2022-11-23T14:15:35.779Z,10.70
2022-11-23T14:18:39.612Z,10.10
2022-11-23T14:22:27.611Z,9.80
2022-11-23T14:26:29.823Z,9.70
2022-11-23T14:29:56.018Z,9.50
2022-11-23T14:33:22.223Z,9.10
2022-11-23T14:36:47.997Z,8.50
2022-11-23T14:39:57.487Z,8.20
2022-11-23T14:43:00.723Z,7.90
2022-11-23T14:46:07.320Z,7.60
2022-11-23T14:49:15.290Z,7.60
2022-11-23T14:52:24.786Z,7.50
2022-11-23T14:55:30.610Z,7.30
2022-11-23T14:58:33.749Z,7.30
2022-11-23T15:01:37.303Z,7.20
2022-11-23T15:04:59.670Z,7.20
2022-11-23T15:08:39.482Z,7.10
2022-11-23T15:11:40.627Z,7.00
2022-11-23T15:14:44.240Z,7.10
2022-11-23T15:18:02.591Z,7.10
2022-11-23T15:21:10.696Z,7.00
2022-11-23T15:24:23.947Z,6.90
2022-11-23T15:27:28.622Z,6.90
2022-11-23T15:30:31.273Z,6.90
2022-11-23T15:33:32.367Z,6.90
2022-11-23T15:36:40.096Z,6.80
2022-11-23T15:39:42.846Z,6.80
2022-11-23T15:42:48.632Z,6.80
2022-11-23T15:45:49.308Z,6.60
2022-11-23T15:48:52.345Z,6.50
2022-11-23T15:52:01.316Z,6.50
2022-11-23T15:55:14.206Z,6.50
2022-11-23T15:58:19.729Z,6.50
2022-11-23T16:01:22.367Z,6.60
2022-11-23T16:04:40.566Z,6.50
2022-11-23T16:08:02.403Z,6.40
2022-11-23T16:11:03.824Z,6.30
2022-11-23T16:14:21.276Z,6.30
2022-11-23T16:17:26.268Z,6.20
2022-11-23T16:20:29.622Z,6.20
2022-11-23T16:23:37.271Z,6.30
2022-11-23T16:26:38.099Z,6.30
2022-11-23T16:29:39.036Z,6.30
2022-11-23T16:32:39.691Z,6.30
2022-11-23T16:35:40.573Z,6.40
2022-11-23T16:38:41.321Z,6.40
2022-11-23T16:41:42.579Z,6.40
2022-11-23T16:44:45.790Z,6.60
2022-11-23T16:47:56.969Z,6.60
2022-11-23T16:50:58.099Z,6.60
2022-11-23T16:54:17.019Z,6.50
2022-11-23T16:57:34.736Z,6.50
2022-11-23T17:00:36.192Z,6.60
2022-11-23T17:03:41.421Z,6.70
2022-11-23T17:06:45.623Z,6.80
2022-11-23T17:09:46.989Z,6.80
2022-11-23T17:12:54.204Z,6.70
2022-11-23T17:15:56.272Z,6.80
2022-11-23T17:18:57.579Z,6.70
2022-11-23T17:21:58.310Z,6.50
2022-11-23T17:24:59.233Z,6.20
2022-11-23T17:28:01.523Z,5.90
2022-11-23T17:31:02.353Z,5.60
2022-11-23T17:34:03.644Z,5.20
2022-11-23T17:37:05.837Z,5.10
2022-11-23T17:40:14.914Z,5.10
2022-11-23T17:43:15.811Z,5.10
2022-11-23T17:46:24.428Z,5.20
2022-11-23T17:49:28.459Z,5.30
2022-11-23T17:52:29.528Z,5.30
2022-11-23T17:55:30.270Z,5.30
2022-11-23T17:58:31.588Z,5.40
2022-11-23T18:01:33.205Z,5.40
2022-11-23T18:04:34.149Z,5.40
2022-11-23T18:07:35.213Z,5.40
2022-11-23T18:10:36.459Z,5.40
2022-11-23T18:13:39.261Z,5.40
2022-11-23T18:16:40.485Z,5.30
2022-11-23T18:19:41.734Z,5.30
2022-11-23T18:22:42.692Z,5.10
2022-11-23T18:25:46.238Z,5.10
2022-11-23T18:28:49.395Z,5.00
2022-11-23T18:31:50.662Z,5.00
2022-11-23T18:34:51.932Z,5.00
2022-11-23T18:37:53.054Z,4.90
2022-11-23T18:40:54.989Z,5.00
2022-11-23T18:43:56.030Z,5.00
2022-11-23T18:46:57.408Z,5.10
2022-11-23T18:50:02.046Z,5.10
2022-11-23T18:53:07.453Z,5.00
2022-11-23T18:56:10.035Z,4.90
2022-11-23T18:59:28.771Z,4.90
2022-11-23T19:02:32.736Z,4.90
2022-11-23T19:05:36.075Z,4.90
2022-11-23T19:08:43.519Z,4.90
2022-11-23T19:11:44.658Z,5.00
2022-11-23T19:14:49.770Z,5.10
2022-11-23T19:17:50.659Z,5.10
2022-11-23T19:20:51.355Z,5.10
2022-11-23T19:23:55.830Z,5.10
2022-11-23T19:26:56.688Z,5.10
2022-11-23T19:29:57.868Z,5.20
2022-11-23T19:32:59.208Z,5.20
2022-11-23T19:36:12.455Z,5.20
2022-11-23T19:39:13.631Z,5.20
2022-11-23T19:42:14.408Z,5.30
2022-11-23T19:45:15.786Z,5.30
2022-11-23T19:48:17.103Z,5.30
2022-11-23T19:51:20.299Z,5.40
2022-11-23T19:54:21.387Z,5.50
2022-11-23T19:57:22.798Z,5.70
2022-11-23T20:00:23.617Z,5.80
2022-11-23T20:03:24.956Z,5.80
2022-11-23T20:06:29.822Z,5.80
2022-11-23T20:09:31.089Z,5.80
2022-11-23T20:12:33.438Z,5.80
2022-11-23T20:15:34.506Z,6.00
2022-11-23T20:18:35.763Z,6.00
2022-11-23T20:21:37.611Z,6.00
2022-11-23T20:24:38.617Z,6.10
2022-11-23T20:27:40.929Z,6.10
2022-11-23T20:30:43.514Z,6.10
2022-11-23T20:33:45.737Z,6.00
2022-11-23T20:36:46.572Z,6.10
2022-11-23T20:39:47.544Z,6.10
2022-11-23T20:42:48.703Z,6.10
2022-11-23T20:45:49.610Z,6.20
2022-11-23T20:48:52.870Z,6.10
2022-11-23T20:51:54.012Z,6.20
2022-11-23T20:54:54.735Z,6.10
2022-11-23T20:57:56.082Z,6.10
2022-11-23T21:01:02.358Z,6.20
2022-11-23T21:04:03.998Z,6.10
2022-11-23T21:07:04.879Z,6.00
2022-11-23T21:10:06.269Z,6.10
2022-11-23T21:13:48.676Z,6.10
2022-11-23T21:16:56.017Z,6.10
2022-11-23T21:19:57.226Z,6.20
2022-11-23T21:22:58.136Z,6.30
2022-11-23T21:26:06.748Z,6.30
2022-11-23T21:29:09.955Z,6.30
2022-11-23T21:32:11.681Z,6.40
2022-11-23T21:35:12.695Z,6.40
2022-11-23T21:38:13.687Z,6.40
2022-11-23T21:41:18.179Z,6.40
2022-11-23T21:44:20.633Z,6.50
2022-11-23T21:47:21.637Z,6.40
2022-11-23T21:50:22.430Z,6.30
2022-11-23T21:53:23.522Z,6.20
2022-11-23T21:56:26.070Z,6.10
2022-11-23T21:59:26.880Z,6.20
2022-11-23T22:02:28.395Z,6.20
2022-11-23T22:05:29.264Z,6.30
2022-11-23T22:08:30.139Z,6.40
2022-11-23T22:11:35.191Z,6.50
2022-11-23T22:14:36.095Z,6.30
2022-11-23T22:17:37.288Z,6.40
2022-11-23T22:20:38.109Z,6.30
2022-11-23T22:23:39.901Z,6.20
2022-11-23T22:26:41.999Z,6.10
2022-11-23T22:29:42.775Z,6.20
2022-11-23T22:32:43.648Z,6.00
2022-11-23T22:35:44.558Z,5.90
2022-11-23T22:38:46.441Z,6.00
2022-11-23T22:41:47.669Z,5.90
2022-11-23T22:44:48.366Z,5.90
2022-11-23T22:47:49.305Z,6.00
2022-11-23T22:51:02.963Z,6.00
2022-11-23T22:54:04.938Z,6.00
2022-11-23T22:57:06.166Z,6.00
2022-11-23T23:00:11.002Z,6.00
2022-11-23T23:03:12.519Z,5.90
2022-11-23T23:06:18.207Z,5.90
2022-11-23T23:09:19.445Z,5.90
2022-11-23T23:12:20.405Z,6.00
2022-11-23T23:15:22.164Z,6.00
2022-11-23T23:18:22.784Z,6.00
2022-11-23T23:21:25.916Z,6.00
2022-11-23T23:24:26.759Z,6.00
2022-11-23T23:27:28.676Z,6.00
2022-11-23T23:30:29.419Z,6.00
2022-11-23T23:33:32.879Z,6.00
2022-11-23T23:36:36.304Z,5.90
2022-11-23T23:39:37.170Z,5.90
2022-11-23T23:42:37.936Z,5.90
2022-11-23T23:45:38.882Z,5.80
2022-11-23T23:48:41.331Z,5.80
2022-11-23T23:51:42.398Z,5.90
2022-11-23T23:54:43.817Z,5.90
2022-11-23T23:57:44.725Z,5.90
